Time;durP1;ratioP1;P1;durP2;ratioP2;P2;SDS_P1;SDS_P2;PMS_P1;PMS_P2;Temp;Humidity;BMP_temperature;BMP_pressure;BME280_temperature;BME280_humidity;BME280_pressure;Samples;Min_cycle;Max_cycle;Signal;HPM_P1;HPM_P2
2022/05/02 00:01:27;;;;;;;6.40;3.67;;;12.30;99.90;;;;;;5034473;28;20398;-78
2022/05/02 00:03:53;;;;;;;7.90;3.97;;;12.20;99.90;;;;;;5033982;28;20040;-78
2022/05/02 00:06:18;;;;;;;9.60;3.72;;;12.30;99.90;;;;;;5034947;28;20056;-77
2022/05/02 00:08:44;;;;;;;6.55;3.47;;;12.30;99.90;;;;;;5033701;28;20062;-77
2022/05/02 00:11:10;;;;;;;8.05;3.70;;;12.30;99.90;;;;;;5033974;28;20026;-76
2022/05/02 00:13:35;;;;;;;8.00;3.97;;;12.20;99.90;;;;;;5036108;28;20033;-77
2022/05/02 00:16:01;;;;;;;8.32;4.05;;;12.20;99.90;;;;;;5035554;28;20045;-76
2022/05/02 00:18:28;;;;;;;8.25;4.47;;;12.20;99.90;;;;;;5036054;28;20164;-77
2022/05/02 00:20:53;;;;;;;9.82;3.78;;;12.20;99.90;;;;;;5037395;28;20496;-75
2022/05/02 00:23:19;;;;;;;6.70;3.72;;;12.20;99.90;;;;;;5036373;28;20028;-76
2022/05/02 00:25:44;;;;;;;9.02;4.22;;;12.20;99.90;;;;;;5035764;28;20053;-77
2022/05/02 00:28:14;;;;;;;7.50;4.25;;;12.10;99.90;;;;;;5036341;28;20025;-76
2022/05/02 00:30:40;;;;;;;9.15;3.92;;;12.10;99.90;;;;;;5036657;28;20494;-76
2022/05/02 00:33:06;;;;;;;6.80;3.70;;;12.10;99.90;;;;;;5035445;28;20025;-76
2022/05/02 00:35:33;;;;;;;7.82;3.70;;;12.10;99.90;;;;;;5035101;28;20134;-76
2022/05/02 00:37:58;;;;;;;7.72;4.00;;;12.10;99.90;;;;;;5034139;28;20216;-76
2022/05/02 00:40:24;;;;;;;10.00;3.78;;;12.00;99.90;;;;;;5035481;28;20030;-76
2022/05/02 00:42:50;;;;;;;9.65;4.00;;;12.00;99.90;;;;;;5036328;28;20029;-76
2022/05/02 00:45:18;;;;;;;8.50;3.92;;;12.00;99.90;;;;;;5035770;28;20483;-76
2022/05/02 00:47:54;;;;;;;11.85;3.83;;;11.90;99.90;;;;;;5036574;28;20375;-76
2022/05/02 00:50:28;;;;;;;7.13;3.75;;;11.90;99.90;;;;;;5034161;28;20025;-77
2022/05/02 00:52:54;;;;;;;7.90;4.05;;;11.80;99.90;;;;;;5035882;28;20035;-76
2022/05/02 00:55:19;;;;;;;10.07;4.07;;;11.80;99.90;;;;;;5035680;28;20112;-76
2022/05/02 00:57:45;;;;;;;9.10;4.20;;;11.80;99.90;;;;;;5035599;28;20110;-77
2022/05/02 01:00:11;;;;;;;10.77;3.55;;;11.70;99.90;;;;;;5035651;28;20049;-76
2022/05/02 01:02:36;;;;;;;10.63;4.13;;;11.70;99.90;;;;;;5035396;28;20423;-77
2022/05/02 01:05:02;;;;;;;7.50;4.13;;;11.60;99.90;;;;;;5035309;28;20030;-75
2022/05/02 01:07:28;;;;;;;10.98;4.35;;;11.50;99.90;;;;;;5036199;28;20056;-76
2022/05/02 01:09:53;;;;;;;12.40;4.20;;;11.40;99.90;;;;;;5038818;28;20393;-77
2022/05/02 01:12:22;;;;;;;7.15;3.78;;;11.40;99.90;;;;;;5037224;28;20033;-76
2022/05/02 01:14:50;;;;;;;9.32;4.05;;;11.30;99.90;;;;;;5035344;28;20033;-77
2022/05/02 01:17:16;;;;;;;9.23;4.35;;;11.30;99.90;;;;;;5035241;28;20029;-76
2022/05/02 01:19:43;;;;;;;8.93;3.95;;;11.20;99.90;;;;;;5035686;28;20021;-76
2022/05/02 01:22:09;;;;;;;9.25;4.30;;;11.20;99.90;;;;;;5043338;28;20018;-76
2022/05/02 01:24:43;;;;;;;9.63;4.20;;;11.10;99.90;;;;;;5046636;28;20032;-77
2022/05/02 01:27:10;;;;;;;10.85;3.80;;;11.00;99.90;;;;;;5044963;28;20025;-76
2022/05/02 01:29:37;;;;;;;11.85;4.65;;;10.90;99.90;;;;;;5035699;28;20037;-77
2022/05/02 01:32:06;;;;;;;10.13;4.70;;;10.90;99.90;;;;;;5035925;28;20502;-77
2022/05/02 01:34:36;;;;;;;10.20;4.93;;;10.80;99.90;;;;;;5035559;28;20034;-76
2022/05/02 01:37:02;;;;;;;9.30;4.40;;;10.70;99.90;;;;;;5036178;28;20057;-75
2022/05/02 01:39:31;;;;;;;9.90;4.60;;;10.70;99.90;;;;;;5033752;28;20438;-76
2022/05/02 01:42:01;;;;;;;7.05;4.45;;;10.70;99.90;;;;;;5033196;28;20060;-76
2022/05/02 01:44:27;;;;;;;13.75;5.93;;;10.60;99.90;;;;;;5033609;28;20057;-76
2022/05/02 01:46:53;;;;;;;15.40;6.25;;;10.60;99.90;;;;;;5034787;28;20021;-76
2022/05/02 01:49:19;;;;;;;10.07;5.72;;;10.50;99.90;;;;;;5034969;28;20093;-75
2022/05/02 01:51:45;;;;;;;10.93;6.07;;;10.50;99.90;;;;;;5038458;28;20022;-76
2022/05/02 01:54:10;;;;;;;13.15;6.20;;;10.40;99.90;;;;;;5037559;28;20109;-77
2022/05/02 01:56:36;;;;;;;14.63;4.93;;;10.40;99.90;;;;;;5044930;28;20041;-77
2022/05/02 01:59:03;;;;;;;15.45;5.95;;;10.30;99.90;;;;;;5055380;28;20017;-76
2022/05/02 02:01:29;;;;;;;8.27;4.97;;;10.30;99.90;;;;;;5057674;28;20021;-76
2022/05/02 02:03:55;;;;;;;13.98;6.90;;;10.20;99.90;;;;;;5056610;28;20022;-75
2022/05/02 02:06:21;;;;;;;10.30;5.85;;;10.20;99.90;;;;;;5053134;28;20075;-75
2022/05/02 02:08:48;;;;;;;8.88;5.25;;;10.10;99.90;;;;;;5053701;28;20081;-75
2022/05/02 02:11:14;;;;;;;9.07;5.25;;;10.20;99.90;;;;;;5051728;28;20056;-74
2022/05/02 02:13:40;;;;;;;11.98;5.18;;;10.10;99.90;;;;;;5055833;28;20021;-75
2022/05/02 02:16:09;;;;;;;15.70;5.57;;;10.10;99.90;;;;;;5058091;28;20030;-76
2022/05/02 02:18:35;;;;;;;13.75;5.60;;;10.00;99.90;;;;;;5055796;28;20033;-76
2022/05/02 02:21:01;;;;;;;17.30;6.32;;;10.00;99.90;;;;;;5055985;28;20029;-76
2022/05/02 02:23:26;;;;;;;14.23;5.07;;;10.00;99.90;;;;;;5044921;28;20033;-76
2022/05/02 02:25:53;;;;;;;12.88;5.40;;;10.00;99.90;;;;;;5033875;28;20036;-76
2022/05/02 02:28:18;;;;;;;12.43;5.25;;;10.00;99.90;;;;;;5034165;28;20029;-76
2022/05/02 02:30:45;;;;;;;11.75;5.05;;;10.00;99.90;;;;;;5038878;28;20082;-76
2022/05/02 02:33:11;;;;;;;12.30;4.95;;;9.90;99.90;;;;;;5035920;28;20032;-76
2022/05/02 02:35:37;;;;;;;11.30;4.90;;;9.90;99.90;;;;;;5033326;28;20033;-76
2022/05/02 02:38:02;;;;;;;8.98;5.60;;;9.80;99.90;;;;;;5034998;28;20039;-76
2022/05/02 02:40:30;;;;;;;10.68;5.20;;;9.80;99.90;;;;;;5035209;28;20128;-76
2022/05/02 02:42:56;;;;;;;11.50;5.60;;;9.80;99.90;;;;;;5033950;28;20454;-77
2022/05/02 02:45:22;;;;;;;8.38;5.05;;;9.80;99.90;;;;;;5032569;28;20060;-76
2022/05/02 02:47:48;;;;;;;7.78;5.07;;;9.70;99.90;;;;;;5031577;28;20045;-76
2022/05/02 02:50:14;;;;;;;9.82;5.72;;;9.70;99.90;;;;;;5032941;28;20087;-76
2022/05/02 02:52:39;;;;;;;13.57;5.53;;;9.70;99.90;;;;;;5033154;28;20033;-77
2022/05/02 02:55:05;;;;;;;12.60;5.80;;;9.60;99.90;;;;;;5033040;28;20457;-76
2022/05/02 02:57:31;;;;;;;14.02;5.30;;;9.60;99.90;;;;;;5033375;28;20029;-76
2022/05/02 02:59:56;;;;;;;9.90;6.07;;;9.50;99.90;;;;;;5033596;28;20033;-76
2022/05/02 03:02:22;;;;;;;10.90;5.88;;;9.50;99.90;;;;;;5032463;28;20044;-76
2022/05/02 03:07:32;;;;;;;10.65;6.03;;;9.40;99.90;;;;;;5033617;28;20541;-76
2022/05/02 03:09:58;;;;;;;10.95;6.18;;;9.40;99.90;;;;;;5032019;28;20041;-77
2022/05/02 03:12:25;;;;;;;11.10;5.40;;;9.30;99.90;;;;;;5033448;28;20029;-76
2022/05/02 03:14:50;;;;;;;12.98;7.05;;;9.30;99.90;;;;;;5033864;28;20068;-77
2022/05/02 03:17:16;;;;;;;10.73;5.30;;;9.30;99.90;;;;;;5033187;28;20057;-75
2022/05/02 03:19:41;;;;;;;9.40;5.20;;;9.20;99.90;;;;;;5033796;28;20051;-76
2022/05/02 03:22:07;;;;;;;10.95;5.57;;;9.20;99.90;;;;;;5033452;28;20029;-78
2022/05/02 03:24:33;;;;;;;10.65;5.75;;;9.20;99.90;;;;;;5034100;28;20463;-77
2022/05/02 03:26:59;;;;;;;11.30;5.88;;;9.10;99.90;;;;;;5033043;28;20387;-76
2022/05/02 03:29:24;;;;;;;8.15;5.05;;;9.10;99.90;;;;;;5034832;28;20033;-77
2022/05/02 03:31:50;;;;;;;10.18;5.40;;;9.10;99.90;;;;;;5033594;28;20415;-76
2022/05/02 03:34:15;;;;;;;13.60;7.38;;;9.00;99.90;;;;;;5033245;28;20544;-76
2022/05/02 03:36:41;;;;;;;15.25;6.00;;;9.00;99.90;;;;;;5032084;28;20207;-77
2022/05/02 03:39:07;;;;;;;9.77;5.85;;;8.90;99.90;;;;;;5032750;28;20025;-76
2022/05/02 03:41:32;;;;;;;10.55;6.07;;;8.90;99.90;;;;;;5033050;28;20029;-76
2022/05/02 03:43:58;;;;;;;10.98;6.18;;;8.90;99.90;;;;;;5032811;28;20030;-75
2022/05/02 03:46:24;;;;;;;11.52;6.40;;;8.90;99.90;;;;;;5031696;28;20037;-75
2022/05/02 03:48:49;;;;;;;10.57;5.45;;;8.80;99.90;;;;;;5031605;28;20044;-74
2022/05/02 03:51:15;;;;;;;9.32;5.80;;;8.80;99.90;;;;;;5032950;28;20065;-77
2022/05/02 03:53:41;;;;;;;14.85;6.03;;;8.70;99.90;;;;;;5033237;28;20553;-77
2022/05/02 03:56:07;;;;;;;11.43;5.97;;;8.70;99.90;;;;;;5032770;28;20057;-76
2022/05/02 03:58:32;;;;;;;10.20;5.63;;;8.60;99.90;;;;;;5031112;28;20029;-76
2022/05/02 04:00:58;;;;;;;15.70;6.72;;;8.70;99.90;;;;;;5033078;28;20030;-77
2022/05/02 04:03:23;;;;;;;12.68;5.75;;;8.60;99.90;;;;;;5033008;28;20471;-77
2022/05/02 04:05:49;;;;;;;12.75;7.78;;;8.60;99.90;;;;;;5032709;28;20025;-76
2022/05/02 04:08:15;;;;;;;18.20;7.22;;;8.60;99.90;;;;;;5034358;28;20033;-76
2022/05/02 04:10:41;;;;;;;14.05;6.50;;;8.60;99.90;;;;;;5032561;28;20044;-75
2022/05/02 04:13:06;;;;;;;15.57;6.28;;;8.50;99.90;;;;;;5033623;28;20033;-77
2022/05/02 04:15:34;;;;;;;10.52;6.50;;;8.60;99.90;;;;;;5034742;28;20029;-76
2022/05/02 04:17:59;;;;;;;16.83;6.78;;;8.60;99.90;;;;;;5033681;28;20025;-75
2022/05/02 04:20:25;;;;;;;14.18;7.40;;;8.60;99.90;;;;;;5034094;28;20017;-77
2022/05/02 04:22:51;;;;;;;9.88;6.25;;;8.60;99.90;;;;;;5036031;28;20024;-75
2022/05/02 04:25:17;;;;;;;15.13;6.57;;;8.50;99.90;;;;;;5032765;28;20502;-76
2022/05/02 04:27:43;;;;;;;12.70;6.63;;;8.60;99.90;;;;;;5032703;28;20073;-76
2022/05/02 04:30:10;;;;;;;17.65;7.03;;;8.50;99.90;;;;;;5032970;28;20028;-76
2022/05/02 04:32:36;;;;;;;10.98;6.72;;;8.50;99.90;;;;;;5033518;28;20057;-76
2022/05/02 04:35:03;;;;;;;13.45;6.78;;;8.50;99.90;;;;;;5035540;28;20038;-76
2022/05/02 04:37:28;;;;;;;13.50;7.07;;;8.50;99.90;;;;;;5034639;28;20021;-76
2022/05/02 04:39:54;;;;;;;12.40;6.93;;;8.50;99.90;;;;;;5036683;28;20052;-78
2022/05/02 04:42:20;;;;;;;14.25;6.93;;;8.50;99.90;;;;;;5040960;28;20044;-78
2022/05/02 04:44:46;;;;;;;15.65;7.90;;;8.60;99.90;;;;;;5039285;28;20093;-78
2022/05/02 04:47:11;;;;;;;21.67;9.60;;;8.50;99.90;;;;;;5037400;28;20049;-77
2022/05/02 04:49:37;;;;;;;16.85;9.10;;;8.60;99.90;;;;;;5037170;28;20026;-78
2022/05/02 04:52:03;;;;;;;18.20;8.27;;;8.60;99.90;;;;;;5036995;28;20379;-76
2022/05/02 04:54:28;;;;;;;15.90;7.78;;;8.60;99.90;;;;;;5039188;28;20461;-78
2022/05/02 04:56:54;;;;;;;15.45;7.18;;;8.60;99.90;;;;;;5037820;28;20059;-78
2022/05/02 04:59:20;;;;;;;18.55;6.88;;;8.70;99.90;;;;;;5039684;28;20486;-79
2022/05/02 05:01:45;;;;;;;11.80;7.32;;;8.70;99.90;;;;;;5040809;28;20017;-79
2022/05/02 05:04:11;;;;;;;14.73;8.30;;;8.80;99.90;;;;;;5039673;28;20479;-79
2022/05/02 05:06:36;;;;;;;16.20;7.85;;;8.90;99.90;;;;;;5055429;28;20095;-77
2022/05/02 05:09:03;;;;;;;19.48;8.23;;;8.90;99.90;;;;;;5059308;28;20141;-76
2022/05/02 05:11:50;;;;;;;14.13;8.38;;;9.00;99.90;;;;;;5047543;28;20029;-77
2022/05/02 05:17:58;;;;;;;20.95;11.35;;;9.20;99.90;;;;;;5044315;28;20049;-78
2022/05/02 05:20:42;;;;;;;18.33;9.25;;;9.20;99.90;;;;;;5043209;28;20045;-78
2022/05/02 05:23:29;;;;;;;19.15;8.85;;;9.30;99.90;;;;;;5045377;28;20025;-77
2022/05/02 05:26:20;;;;;;;21.75;10.10;;;9.30;99.90;;;;;;5044956;28;20033;-76
2022/05/02 05:29:10;;;;;;;14.40;8.88;;;9.40;99.90;;;;;;5047196;28;20052;-76
2022/05/02 05:31:42;;;;;;;18.52;8.02;;;9.50;99.90;;;;;;5046735;28;20029;-76
2022/05/02 05:34:21;;;;;;;23.20;8.45;;;9.50;99.90;;;;;;5047226;28;20056;-76
2022/05/02 05:37:37;;;;;;;18.35;8.25;;;9.60;99.90;;;;;;5040856;28;20497;-76
2022/05/02 05:40:09;;;;;;;20.58;11.32;;;9.70;99.90;;;;;;5035409;28;20029;-76
2022/05/02 05:43:16;;;;;;;21.95;12.13;;;9.80;99.90;;;;;;5036588;28;20025;-76
2022/05/02 05:46:14;;;;;;;19.52;8.82;;;9.90;99.90;;;;;;5035667;28;20176;-76
2022/05/02 05:49:09;;;;;;;20.00;8.07;;;9.90;99.90;;;;;;5039059;28;20056;-78
2022/05/02 05:51:54;;;;;;;16.33;8.25;;;10.10;99.90;;;;;;5040400;28;20048;-77
2022/05/02 05:54:31;;;;;;;15.38;8.57;;;10.20;99.90;;;;;;5045585;28;20112;-77
2022/05/02 05:57:16;;;;;;;15.82;7.90;;;10.20;99.90;;;;;;5043666;28;20029;-77
2022/05/02 06:00:03;;;;;;;15.57;8.23;;;10.30;99.90;;;;;;5038286;28;20536;-79
2022/05/02 06:02:56;;;;;;;15.20;8.05;;;10.40;99.90;;;;;;5040683;28;20057;-79
2022/05/02 06:05:23;;;;;;;11.77;7.47;;;10.50;99.90;;;;;;5050571;28;20079;-77
2022/05/02 06:07:51;;;;;;;17.52;7.78;;;10.60;99.90;;;;;;5049023;28;20025;-77
2022/05/02 06:10:17;;;;;;;15.60;7.40;;;10.70;99.90;;;;;;5049609;28;20068;-77
2022/05/02 06:12:44;;;;;;;15.80;7.88;;;10.80;99.90;;;;;;5048634;28;20039;-78
2022/05/02 06:20:45;;;;;;;28.02;14.15;;;11.10;99.90;;;;;;5040728;28;20079;-78
2022/05/02 06:23:14;;;;;;;20.02;11.07;;;11.20;99.90;;;;;;5042428;28;20025;-77
2022/05/02 06:25:41;;;;;;;14.65;8.20;;;11.30;99.90;;;;;;5039242;28;20128;-76
2022/05/02 06:28:08;;;;;;;16.17;7.50;;;11.40;99.90;;;;;;5040067;28;20026;-77
2022/05/02 06:30:40;;;;;;;11.40;7.88;;;11.50;99.90;;;;;;5043913;28;20029;-76
2022/05/02 06:33:14;;;;;;;13.48;7.25;;;11.50;99.90;;;;;;5043970;28;20378;-76
2022/05/02 06:36:07;;;;;;;14.40;7.00;;;11.60;99.90;;;;;;5055048;28;20044;-73
2022/05/02 06:39:05;;;;;;;20.38;7.68;;;11.70;99.90;;;;;;5057897;28;20052;-75
2022/05/02 06:42:00;;;;;;;10.77;6.60;;;11.80;99.90;;;;;;5048464;28;20029;-77
2022/05/02 06:44:45;;;;;;;13.73;7.30;;;12.00;99.90;;;;;;5055673;28;20044;-74
2022/05/02 06:47:25;;;;;;;15.07;7.43;;;12.10;99.90;;;;;;5058714;28;20036;-77
2022/05/02 06:49:53;;;;;;;23.95;13.15;;;12.20;99.90;;;;;;5058600;28;20029;-75
2022/05/02 06:52:24;;;;;;;18.67;8.57;;;12.40;99.90;;;;;;5058693;28;20025;-77
2022/05/02 06:55:06;;;;;;;16.25;7.15;;;12.50;99.90;;;;;;5058187;28;20017;-74
2022/05/02 06:57:40;;;;;;;16.98;6.65;;;12.60;99.90;;;;;;5056771;28;20033;-76
2022/05/02 07:00:10;;;;;;;11.60;6.57;;;12.70;99.90;;;;;;5041958;28;20110;-78
2022/05/02 07:03:20;;;;;;;14.73;6.97;;;12.80;99.90;;;;;;5037805;28;20080;-76
2022/05/02 07:06:05;;;;;;;25.52;6.72;;;13.00;99.90;;;;;;5036257;28;20033;-76
2022/05/02 07:08:38;;;;;;;9.63;5.03;;;13.10;99.90;;;;;;5041343;28;20033;-76
2022/05/02 07:11:06;;;;;;;15.45;7.03;;;13.20;99.90;;;;;;5039198;28;20029;-77
2022/05/02 07:14:01;;;;;;;12.70;6.22;;;13.30;99.90;;;;;;5038924;28;20079;-77
2022/05/02 07:16:29;;;;;;;10.55;5.78;;;13.40;99.90;;;;;;5036187;28;20025;-77
2022/05/02 07:19:37;;;;;;;12.50;5.13;;;13.40;99.90;;;;;;5037530;28;20032;-78
2022/05/02 07:22:18;;;;;;;11.57;4.47;;;13.50;99.90;;;;;;5036691;28;20079;-77
2022/05/02 07:25:08;;;;;;;9.73;5.15;;;13.60;99.90;;;;;;5039486;28;20056;-77
2022/05/02 07:27:49;;;;;;;10.45;4.97;;;13.70;99.90;;;;;;5048508;28;20089;-77
2022/05/02 07:30:17;;;;;;;11.40;4.50;;;13.80;99.90;;;;;;5051782;28;20032;-79
2022/05/02 07:32:43;;;;;;;10.45;4.63;;;13.90;99.90;;;;;;5054452;28;20037;-77
2022/05/02 07:35:10;;;;;;;16.40;4.95;;;14.00;99.90;;;;;;5052651;28;20056;-78
2022/05/02 07:37:38;;;;;;;7.50;4.00;;;14.10;99.90;;;;;;5040965;28;20089;-77
2022/05/02 07:40:05;;;;;;;8.15;3.70;;;14.10;99.90;;;;;;5039596;28;20032;-78
2022/05/02 07:42:32;;;;;;;15.10;4.65;;;14.10;99.90;;;;;;5040836;28;20021;-77
2022/05/02 07:45:00;;;;;;;12.60;4.70;;;14.20;99.90;;;;;;5039209;28;20036;-77
2022/05/02 07:47:31;;;;;;;13.68;8.10;;;14.30;99.90;;;;;;5040388;28;20094;-79
2022/05/02 07:49:57;;;;;;;10.30;4.32;;;14.40;99.90;;;;;;5043654;28;20480;-79
2022/05/02 07:52:25;;;;;;;13.30;3.70;;;14.50;99.90;;;;;;5044721;28;20039;-80
2022/05/02 07:54:52;;;;;;;10.00;3.63;;;14.60;99.90;;;;;;5043170;28;20032;-77
2022/05/02 07:57:20;;;;;;;10.90;3.65;;;14.70;99.90;;;;;;5041963;28;20028;-82
2022/05/02 07:59:50;;;;;;;7.68;3.47;;;14.80;99.90;;;;;;5038251;28;20021;-76
2022/05/02 08:02:19;;;;;;;10.73;3.88;;;14.90;99.90;;;;;;5039399;28;20053;-80
2022/05/02 08:04:45;;;;;;;9.10;3.60;;;15.00;99.90;;;;;;5044246;28;20026;-80
2022/05/02 08:07:15;;;;;;;9.70;3.88;;;15.00;99.90;;;;;;5046056;28;20025;-80
2022/05/02 08:10:02;;;;;;;8.00;4.18;;;15.00;99.70;;;;;;5039838;28;20032;-78
2022/05/02 08:12:40;;;;;;;10.88;4.13;;;15.00;99.30;;;;;;5042842;28;20091;-78
2022/05/02 08:15:25;;;;;;;9.98;4.32;;;15.10;99.40;;;;;;5037574;28;20033;-76
2022/05/02 08:18:09;;;;;;;9.23;3.83;;;15.20;99.40;;;;;;5037588;28;20022;-79
2022/05/02 08:20:49;;;;;;;8.40;4.22;;;15.40;99.30;;;;;;5034314;28;20025;-76
2022/05/02 08:27:17;;;;;;;15.07;6.22;;;15.70;97.70;;;;;;5018371;28;20076;-77
2022/05/02 08:30:06;;;;;;;9.73;5.78;;;15.80;95.50;;;;;;5033101;28;20109;-74
2022/05/02 08:32:53;;;;;;;11.38;5.47;;;15.80;93.10;;;;;;5033539;28;20029;-75
2022/05/02 08:35:28;;;;;;;8.27;4.70;;;15.90;93.30;;;;;;5037726;28;20025;-74
2022/05/02 08:38:03;;;;;;;12.80;4.60;;;15.90;93.50;;;;;;5036363;28;20037;-77
2022/05/02 08:40:38;;;;;;;17.70;5.90;;;16.10;93.40;;;;;;5037897;28;20414;-76
2022/05/02 08:43:24;;;;;;;19.60;6.05;;;16.20;92.60;;;;;;5037729;28;20486;-76
2022/05/02 08:46:23;;;;;;;11.63;5.40;;;16.20;92.20;;;;;;5036847;28;20516;-75
2022/05/02 08:52:09;;;;;;;11.68;5.32;;;16.30;91.90;;;;;;5038381;28;20402;-77
2022/05/02 08:55:09;;;;;;;10.90;5.30;;;16.30;91.90;;;;;;5035965;28;20434;-77
2022/05/02 08:57:56;;;;;;;15.48;5.68;;;16.40;91.90;;;;;;5038654;28;20055;-77
2022/05/02 09:00:24;;;;;;;10.05;4.85;;;16.50;92.00;;;;;;5041272;28;20053;-77
2022/05/02 09:03:29;;;;;;;16.90;5.40;;;16.50;91.60;;;;;;5039869;28;20057;-75
2022/05/02 09:06:25;;;;;;;11.25;5.03;;;16.70;91.80;;;;;;5036565;28;20021;-75
2022/05/02 09:09:10;;;;;;;9.85;5.38;;;16.80;91.40;;;;;;5037032;28;20626;-75
2022/05/02 09:12:26;;;;;;;10.93;4.63;;;16.70;88.60;;;;;;5037210;28;20455;-79
2022/05/02 09:15:17;;;;;;;7.53;4.20;;;16.80;89.70;;;;;;5036845;28;20489;-76
2022/05/02 09:17:57;;;;;;;8.73;4.65;;;16.90;89.10;;;;;;5036284;28;20083;-74
2022/05/02 09:20:53;;;;;;;9.15;5.18;;;17.10;89.80;;;;;;5036623;28;20427;-75
2022/05/02 09:23:57;;;;;;;13.13;5.40;;;17.20;89.30;;;;;;5035761;28;20115;-75
2022/05/02 09:26:28;;;;;;;11.50;5.15;;;17.40;89.10;;;;;;5035366;28;20025;-76
2022/05/02 09:28:53;;;;;;;13.88;5.88;;;17.50;87.50;;;;;;5037201;28;20032;-74
2022/05/02 09:31:44;;;;;;;11.88;6.00;;;17.50;85.70;;;;;;5039591;28;20025;-74
2022/05/02 09:34:23;;;;;;;11.70;5.35;;;17.50;86.00;;;;;;5037239;28;20482;-77
2022/05/02 09:37:04;;;;;;;10.60;5.10;;;17.50;86.70;;;;;;5037680;28;20021;-75
2022/05/02 09:40:00;;;;;;;9.18;4.68;;;17.70;86.20;;;;;;5036074;28;20035;-75
2022/05/02 09:42:54;;;;;;;10.57;4.85;;;17.70;85.70;;;;;;5034723;28;20030;-75
2022/05/02 09:51:53;;;;;;;12.93;6.72;;;18.30;83.90;;;;;;5036291;28;20044;-75
2022/05/02 09:57:33;;;;;;;20.65;7.65;;;18.60;80.60;;;;;;5039000;28;20548;-75
2022/05/02 10:02:50;;;;;;;11.60;6.45;;;18.30;79.80;;;;;;5035945;28;20502;-74
2022/05/02 10:05:26;;;;;;;8.98;6.55;;;18.20;80.80;;;;;;5034419;28;20022;-77
2022/05/02 10:08:00;;;;;;;12.15;6.63;;;18.20;79.40;;;;;;5034714;28;20072;-75
2022/05/02 10:10:49;;;;;;;12.98;6.90;;;18.20;80.80;;;;;;5034985;28;20018;-76
2022/05/02 10:13:24;;;;;;;11.65;6.10;;;18.30;79.80;;;;;;5034514;28;20033;-76
2022/05/02 10:16:18;;;;;;;8.00;4.75;;;18.40;79.50;;;;;;5038883;28;20058;-75
2022/05/02 10:18:51;;;;;;;11.45;5.88;;;18.50;79.70;;;;;;5035845;28;20076;-75
2022/05/02 10:21:38;;;;;;;9.50;5.30;;;18.60;78.10;;;;;;5036863;28;20075;-75
2022/05/02 10:24:33;;;;;;;8.85;5.38;;;18.80;77.80;;;;;;5038862;28;20048;-75
2022/05/02 10:27:32;;;;;;;9.52;5.60;;;18.90;77.70;;;;;;5042035;28;20022;-75
2022/05/02 10:30:07;;;;;;;10.45;5.40;;;18.70;76.00;;;;;;5038152;28;20040;-75
2022/05/02 10:32:53;;;;;;;10.20;5.45;;;18.90;75.70;;;;;;5037675;28;20105;-76
2022/05/02 10:35:21;;;;;;;14.90;5.05;;;19.10;75.50;;;;;;5038401;28;20510;-76
2022/05/02 10:37:58;;;;;;;11.55;5.43;;;19.40;75.80;;;;;;5034274;28;20041;-75
2022/05/02 10:40:39;;;;;;;11.00;4.97;;;19.70;75.00;;;;;;5035277;28;20029;-74
2022/05/02 10:43:07;;;;;;;10.50;5.95;;;20.00;73.90;;;;;;5035415;28;20367;-76
2022/05/02 10:45:36;;;;;;;14.50;5.90;;;20.00;73.20;;;;;;5038053;28;20117;-77
2022/05/02 10:48:31;;;;;;;11.27;6.13;;;20.10;72.10;;;;;;5042885;28;20078;-77
2022/05/02 10:51:18;;;;;;;12.23;6.53;;;20.10;72.40;;;;;;5036701;28;20025;-76
2022/05/02 10:53:57;;;;;;;10.80;6.25;;;20.10;71.90;;;;;;5041086;28;20033;-77
2022/05/02 10:56:32;;;;;;;9.82;6.18;;;20.10;71.60;;;;;;5040974;28;20025;-77
2022/05/02 10:59:02;;;;;;;9.90;5.47;;;20.20;71.30;;;;;;5040186;28;20097;-77
2022/05/02 11:02:05;;;;;;;13.25;5.78;;;20.20;71.20;;;;;;5037163;28;20049;-77
2022/05/02 11:05:06;;;;;;;11.60;5.13;;;20.50;70.30;;;;;;5040527;28;20109;-77
2022/05/02 11:07:54;;;;;;;12.77;6.10;;;20.50;70.80;;;;;;5043011;28;20060;-78
2022/05/02 11:10:27;;;;;;;11.38;5.53;;;20.70;69.60;;;;;;5044706;28;20026;-77
2022/05/02 11:12:59;;;;;;;14.30;5.80;;;21.10;68.30;;;;;;5041387;28;20028;-76
2022/05/02 11:15:26;;;;;;;8.38;4.82;;;;;;;;;;5038518;28;20025;-77
2022/05/02 11:18:08;;;;;;;9.60;5.72;;;21.40;67.00;;;;;;5045691;28;20040;-75
2022/05/02 11:21:02;;;;;;;10.38;5.55;;;21.50;66.30;;;;;;5042703;28;20024;-78
2022/05/02 11:23:29;;;;;;;13.05;5.22;;;21.60;65.90;;;;;;5040235;28;20068;-77
2022/05/02 11:25:57;;;;;;;12.18;5.65;;;21.90;65.70;;;;;;5039044;28;20049;-77
2022/05/02 11:28:51;;;;;;;9.35;5.55;;;22.10;64.50;;;;;;5036866;28;20026;-78
2022/05/02 11:31:40;;;;;;;12.07;6.13;;;22.20;63.40;;;;;;5036197;28;20032;-80
2022/05/02 11:34:19;;;;;;;11.98;6.70;;;22.20;63.40;;;;;;5037381;28;20025;-78
2022/05/02 11:36:50;;;;;;;10.40;5.88;;;22.30;62.80;;;;;;5037606;28;20014;-77
2022/05/02 11:39:24;;;;;;;12.23;6.35;;;22.40;62.50;;;;;;5040253;28;20083;-78
2022/05/02 11:41:50;;;;;;;12.77;6.40;;;22.40;62.30;;;;;;5037456;28;20049;-76
2022/05/02 11:44:17;;;;;;;13.55;6.15;;;22.10;62.60;;;;;;5037611;28;20022;-78
2022/05/02 11:46:54;;;;;;;10.60;6.10;;;21.90;62.80;;;;;;5038110;28;20091;-78
2022/05/02 11:49:45;;;;;;;10.50;5.68;;;21.70;63.70;;;;;;5039504;28;20113;-78
2022/05/02 11:52:18;;;;;;;13.60;5.57;;;21.60;63.80;;;;;;5039739;28;20368;-77
2022/05/02 11:54:51;;;;;;;13.50;5.50;;;21.60;64.50;;;;;;5039349;28;20055;-77
2022/05/02 11:57:22;;;;;;;15.73;6.18;;;21.60;64.50;;;;;;5042908;28;20044;-78
2022/05/02 12:00:07;;;;;;;11.52;6.47;;;21.70;65.20;;;;;;5040916;28;20022;-78
2022/05/02 12:02:52;;;;;;;;;;;21.80;64.30;;;;;;5041038;28;20208;-78
2022/05/02 12:05:23;;;;;;;9.93;6.05;;;21.80;63.20;;;;;;5041825;28;19909;-77
2022/05/02 12:08:06;;;;;;;9.88;5.88;;;21.80;63.60;;;;;;5049684;28;20105;-76
2022/05/02 12:10:40;;;;;;;11.38;5.50;;;21.60;64.00;;;;;;5050238;28;20036;-76
2022/05/02 12:13:10;;;;;;;14.02;5.78;;;21.50;64.70;;;;;;5049195;28;20033;-76
2022/05/02 12:15:55;;;;;;;11.73;5.82;;;21.50;64.80;;;;;;5048770;28;20029;-79
2022/05/02 12:18:21;;;;;;;;;;;21.40;65.30;;;;;;5049069;28;20033;-76
2022/05/02 12:20:58;;;;;;;15.50;6.50;;;21.40;64.50;;;;;;5050312;28;19905;-77
2022/05/02 12:23:33;;;;;;;12.55;6.30;;;21.40;64.90;;;;;;5050348;28;20487;-76
2022/05/02 12:26:01;;;;;;;9.68;6.05;;;21.60;64.50;;;;;;5048087;28;20093;-77
2022/05/02 12:28:44;;;;;;;11.43;6.68;;;21.80;64.50;;;;;;5045297;28;20026;-77
2022/05/02 12:31:19;;;;;;;9.80;6.07;;;21.70;64.20;;;;;;5042792;28;20056;-77
2022/05/02 12:33:50;;;;;;;12.50;6.43;;;21.80;64.60;;;;;;5044792;28;20022;-77
2022/05/02 12:36:17;;;;;;;12.30;6.10;;;21.90;64.20;;;;;;5041274;28;20026;-77
2022/05/02 12:38:55;;;;;;;10.00;6.05;;;22.00;63.60;;;;;;5040884;28;20169;-76
2022/05/02 12:41:26;;;;;;;15.50;7.22;;;22.00;63.40;;;;;;5042382;28;20053;-77
2022/05/02 12:44:03;;;;;;;12.40;6.78;;;22.20;63.90;;;;;;5042139;28;20025;-77
2022/05/02 12:46:39;;;;;;;13.70;7.93;;;22.30;62.60;;;;;;5039814;28;20032;-76
2022/05/02 12:49:06;;;;;;;11.93;7.00;;;22.30;62.10;;;;;;5041826;28;20040;-77
2022/05/02 12:51:35;;;;;;;16.67;7.85;;;22.30;61.90;;;;;;5042842;28;20083;-78
2022/05/02 12:54:13;;;;;;;9.95;5.95;;;22.30;62.30;;;;;;5043220;28;20483;-77
2022/05/02 13:02:44;;;;;;;11.40;6.35;;;23.00;60.20;;;;;;5041977;28;20028;-78
2022/05/02 13:05:21;;;;;;;11.10;5.57;;;23.70;59.10;;;;;;5041229;28;20021;-80
2022/05/02 13:07:50;;;;;;;11.57;5.20;;;24.60;58.30;;;;;;5044553;28;20553;-78
2022/05/02 13:10:24;;;;;;;11.85;5.05;;;26.00;55.70;;;;;;5042933;28;20120;-77
2022/05/02 13:12:57;;;;;;;11.45;5.88;;;26.00;55.70;;;;;;5039554;28;20093;-78
2022/05/02 13:15:27;;;;;;;11.68;5.70;;;26.10;54.20;;;;;;5042248;28;20075;-79
2022/05/02 13:18:01;;;;;;;13.45;5.05;;;26.80;52.90;;;;;;5043035;28;20029;-80
2022/05/02 13:20:28;;;;;;;8.02;4.75;;;;;;;;;;5043058;28;20018;-76
2022/05/02 13:22:57;;;;;;;11.52;5.22;;;;;;;;;;5042691;28;20036;-76
2022/05/02 13:25:43;;;;;;;15.27;5.65;;;;;;;;;;5042153;28;20024;-77
2022/05/02 13:28:11;;;;;;;7.55;4.65;;;;;;;;;;5041400;28;20060;-79
2022/05/02 13:30:38;;;;;;;8.77;4.55;;;;;;;;;;5042168;28;20029;-78
2022/05/02 13:33:06;;;;;;;9.80;4.18;;;;;;;;;;5040946;28;20033;-77
2022/05/02 13:35:35;;;;;;;8.07;4.00;;;;;;;;;;5040530;28;20029;-77
2022/05/02 13:38:11;;;;;;;12.52;5.22;;;;;;;;;;5050304;28;20036;-78
2022/05/02 13:40:43;;;;;;;11.35;4.30;;;;;;;;;;5049857;28;20074;-76
2022/05/02 13:43:18;;;;;;;7.32;4.72;;;;;;;;;;5042128;28;20487;-77
2022/05/02 13:46:03;;;;;;;7.97;4.00;;;27.50;51.80;;;;;;5039228;28;20029;-79
2022/05/02 13:48:40;;;;;;;10.02;5.00;;;29.80;44.20;;;;;;5038802;28;20040;-76
2022/05/02 13:51:27;;;;;;;8.45;4.93;;;30.00;43.50;;;;;;5035801;28;20026;-75
2022/05/02 13:54:07;;;;;;;11.73;4.47;;;30.10;43.30;;;;;;5041500;28;20029;-77
2022/05/02 13:56:38;;;;;;;6.88;4.07;;;30.10;43.00;;;;;;5044977;28;20075;-76